Time;durP1;ratioP1;P1;durP2;ratioP2;P2;SDS_P1;SDS_P2;PMS_P1;PMS_P2;Temp;Humidity;BMP_temperature;BMP_pressure;BME280_temperature;BME280_humidity;BME280_pressure;Samples;Min_cycle;Max_cycle;Signal;HPM_P1;HPM_P2
2022/01/10 00:00:34;;;;;;;9.63;3.50;;;0.90;96.30;;;;;;4897888;29;20173;-69
2022/01/10 00:03:01;;;;;;;4.30;3.30;;;0.80;96.30;;;;;;4897781;29;20822;-69
2022/01/10 00:05:27;;;;;;;8.57;3.90;;;0.90;96.30;;;;;;4897381;29;20508;-69
2022/01/10 00:07:52;;;;;;;6.10;3.40;;;0.80;96.30;;;;;;4897513;29;20528;-69
2022/01/10 00:10:18;;;;;;;6.93;3.70;;;0.80;96.30;;;;;;4897205;29;20205;-69
2022/01/10 00:12:44;;;;;;;10.43;3.03;;;0.80;96.30;;;;;;4897596;29;20178;-69
2022/01/10 00:15:11;;;;;;;7.47;3.50;;;0.80;96.30;;;;;;4903145;29;20239;-69
2022/01/10 00:17:38;;;;;;;4.30;2.70;;;0.80;96.30;;;;;;4916253;29;20463;-69
2022/01/10 00:20:13;;;;;;;4.20;3.37;;;0.80;96.30;;;;;;4915886;29;20919;-69
2022/01/10 00:22:40;;;;;;;7.67;3.40;;;0.80;96.30;;;;;;4916251;29;20419;-69
2022/01/10 00:25:07;;;;;;;7.57;3.33;;;0.80;96.30;;;;;;4915691;29;20416;-69
2022/01/10 00:27:33;;;;;;;5.60;3.70;;;0.80;96.30;;;;;;4916142;29;20440;-69
2022/01/10 00:29:58;;;;;;;5.37;3.50;;;0.80;96.30;;;;;;4915921;29;20558;-68
2022/01/10 00:32:24;;;;;;;4.33;3.00;;;0.90;96.30;;;;;;4916121;29;20323;-69
2022/01/10 00:34:51;;;;;;;6.27;4.17;;;0.90;96.30;;;;;;4911905;29;20206;-68
2022/01/10 00:47:55;;;;;;;6.33;3.33;;;0.90;96.30;;;;;;4897428;29;20452;-69
2022/01/10 00:57:05;;;;;;;5.87;3.70;;;0.90;96.30;;;;;;4913932;29;20451;-69
2022/01/10 00:59:31;;;;;;;8.43;3.33;;;0.80;96.30;;;;;;4915861;29;20967;-69
2022/01/10 05:01:37;;;;;;;14.80;5.67;;;0.70;96.30;;;;;;5323958;23;20515;-71
2022/01/10 05:04:02;;;;;;;14.83;6.97;;;0.60;96.30;;;;;;4896324;29;20417;-68
2022/01/10 05:06:28;;;;;;;10.13;5.47;;;0.70;96.30;;;;;;4896963;29;21085;-68
2022/01/10 05:08:53;;;;;;;9.57;6.40;;;0.60;96.30;;;;;;4896871;29;20184;-68
2022/01/10 05:11:20;;;;;;;11.27;7.17;;;0.60;96.30;;;;;;4896669;29;20224;-69
2022/01/10 05:13:46;;;;;;;9.17;6.67;;;0.60;96.30;;;;;;4896330;29;20649;-68
2022/01/10 05:16:13;;;;;;;12.10;7.53;;;0.60;96.30;;;;;;4897639;29;20513;-69
2022/01/10 05:18:39;;;;;;;15.60;6.80;;;0.60;96.30;;;;;;4906827;29;20680;-69
2022/01/10 05:21:05;;;;;;;12.07;6.73;;;0.60;96.30;;;;;;4916236;29;20539;-69
2022/01/10 05:23:30;;;;;;;13.23;6.50;;;0.60;96.30;;;;;;4916466;29;20521;-69
2022/01/10 05:25:56;;;;;;;21.07;7.60;;;0.60;96.30;;;;;;4902473;29;20548;-69
2022/01/10 05:28:22;;;;;;;8.73;6.50;;;0.60;96.30;;;;;;4915657;29;20472;-70
2022/01/10 05:30:50;;;;;;;9.67;6.97;;;0.60;96.30;;;;;;4917395;29;20211;-70
2022/01/10 05:33:15;;;;;;;9.80;6.57;;;0.60;96.30;;;;;;4919177;29;20168;-70
2022/01/10 05:35:44;;;;;;;8.37;6.83;;;0.60;96.30;;;;;;4909528;29;20639;-70
2022/01/10 05:38:09;;;;;;;13.70;6.77;;;0.60;96.30;;;;;;4900648;29;20553;-71
2022/01/10 05:40:35;;;;;;;9.37;6.30;;;0.60;96.30;;;;;;4900196;29;20456;-70
2022/01/10 05:43:01;;;;;;;10.90;7.13;;;0.60;96.30;;;;;;4900421;29;20595;-70
2022/01/10 05:45:27;;;;;;;11.23;6.10;;;0.60;96.30;;;;;;4900155;29;20209;-71
2022/01/10 05:47:52;;;;;;;14.97;7.57;;;0.60;96.30;;;;;;4907998;29;20835;-70
2022/01/10 05:50:21;;;;;;;9.07;7.00;;;0.60;96.30;;;;;;4909339;29;20203;-70
2022/01/10 05:52:47;;;;;;;20.73;7.57;;;0.60;96.30;;;;;;4902038;29;20207;-69
2022/01/10 05:55:12;;;;;;;8.37;6.30;;;0.60;96.30;;;;;;4918565;29;20456;-70
2022/01/10 05:57:38;;;;;;;11.33;7.13;;;0.60;96.30;;;;;;4918854;29;20172;-71
2022/01/10 06:00:06;;;;;;;11.43;5.97;;;0.60;96.30;;;;;;4918872;29;20227;-70
2022/01/10 06:02:31;;;;;;;13.33;6.83;;;0.60;96.30;;;;;;4917372;29;20224;-70
2022/01/10 06:04:59;;;;;;;9.63;5.00;;;0.60;96.30;;;;;;4917747;29;20823;-71
2022/01/10 06:07:25;;;;;;;11.23;5.90;;;0.60;96.30;;;;;;4918811;29;20523;-70
2022/01/10 06:09:51;;;;;;;9.50;6.10;;;0.60;96.30;;;;;;4915427;29;20462;-69
2022/01/10 06:12:16;;;;;;;14.50;6.67;;;0.60;96.30;;;;;;4909770;29;20196;-70
2022/01/10 06:14:42;;;;;;;8.57;6.40;;;0.60;96.30;;;;;;4918171;29;20668;-70
2022/01/10 06:17:07;;;;;;;10.00;5.70;;;0.60;96.30;;;;;;4918301;29;20180;-69
2022/01/10 06:19:33;;;;;;;18.27;7.43;;;0.60;96.30;;;;;;4916998;29;20288;-70
2022/01/10 06:21:58;;;;;;;11.00;6.40;;;0.60;96.30;;;;;;4917597;29;20853;-70
2022/01/10 06:24:24;;;;;;;12.10;7.70;;;0.60;96.30;;;;;;4917156;29;20306;-72
2022/01/10 06:26:49;;;;;;;9.77;6.30;;;0.60;96.30;;;;;;4918173;29;20190;-71
2022/01/10 06:29:15;;;;;;;15.17;6.97;;;0.60;96.30;;;;;;4919454;29;20196;-71
2022/01/10 06:31:40;;;;;;;9.03;6.47;;;0.60;96.30;;;;;;4916260;29;20192;-71
2022/01/10 06:34:06;;;;;;;10.47;6.83;;;0.60;96.30;;;;;;4918307;29;20176;-70
2022/01/10 06:36:31;;;;;;;10.80;7.20;;;0.60;96.30;;;;;;4918529;29;20175;-70
2022/01/10 06:38:57;;;;;;;9.80;6.50;;;0.60;96.30;;;;;;4918419;29;20173;-73
2022/01/10 06:41:22;;;;;;;11.97;6.70;;;0.60;96.30;;;;;;4917548;29;20227;-72
2022/01/10 06:43:48;;;;;;;11.63;7.33;;;0.60;96.30;;;;;;4916419;29;20176;-70
2022/01/10 06:46:13;;;;;;;12.90;6.70;;;0.60;96.30;;;;;;4918314;29;20546;-72
2022/01/10 06:48:39;;;;;;;10.37;6.47;;;0.60;96.30;;;;;;4918147;29;20581;-71
2022/01/10 06:51:04;;;;;;;13.20;6.43;;;0.60;96.30;;;;;;4916600;29;20263;-70
2022/01/10 06:53:30;;;;;;;10.63;6.77;;;0.60;96.30;;;;;;4918242;29;20184;-70
2022/01/10 06:55:55;;;;;;;11.27;6.40;;;0.60;96.30;;;;;;4919114;29;20179;-70
2022/01/10 06:58:21;;;;;;;9.23;5.90;;;0.70;96.30;;;;;;4917927;29;20211;-70
2022/01/10 07:00:47;;;;;;;11.17;6.27;;;0.70;96.30;;;;;;4917985;29;20556;-70
2022/01/10 07:03:12;;;;;;;7.17;5.87;;;0.70;96.30;;;;;;4916305;29;20231;-70
2022/01/10 07:05:38;;;;;;;7.20;5.33;;;0.60;96.30;;;;;;4917938;29;20879;-71
2022/01/10 07:08:04;;;;;;;7.67;5.63;;;0.60;96.30;;;;;;4904833;29;20203;-70
2022/01/10 07:10:29;;;;;;;7.50;4.90;;;0.60;96.30;;;;;;4913863;29;20712;-69
2022/01/10 07:12:55;;;;;;;10.73;5.80;;;0.70;96.30;;;;;;4917675;29;20181;-71
2022/01/10 07:15:21;;;;;;;13.63;5.37;;;0.70;96.30;;;;;;4917579;29;20188;-71
2022/01/10 07:17:47;;;;;;;10.80;5.83;;;0.70;96.30;;;;;;4917811;29;20783;-68
2022/01/10 07:20:12;;;;;;;8.63;5.63;;;0.70;96.30;;;;;;4917417;29;20416;-70
2022/01/10 07:22:38;;;;;;;10.40;5.40;;;0.60;96.30;;;;;;4932186;29;20184;-70
2022/01/10 07:25:04;;;;;;;7.33;5.30;;;0.60;96.30;;;;;;4917109;29;20267;-70
2022/01/10 07:27:29;;;;;;;13.50;6.07;;;0.60;96.30;;;;;;4917330;29;20265;-70
2022/01/10 07:29:55;;;;;;;10.20;6.27;;;0.50;96.30;;;;;;4917158;29;20208;-70
2022/01/10 07:32:20;;;;;;;8.80;6.60;;;0.50;96.30;;;;;;4917218;29;20200;-70
2022/01/10 07:34:46;;;;;;;14.70;9.20;;;0.60;96.30;;;;;;4913559;29;20177;-70
2022/01/10 07:37:12;;;;;;;18.87;8.20;;;0.50;96.30;;;;;;4898293;29;20189;-71
2022/01/10 07:39:38;;;;;;;16.50;8.50;;;0.50;96.30;;;;;;4898166;29;20208;-70
2022/01/10 07:42:04;;;;;;;18.47;8.17;;;0.50;96.30;;;;;;4898135;29;20617;-73
2022/01/10 07:44:30;;;;;;;12.50;8.30;;;0.60;96.30;;;;;;4898018;29;20528;-70
2022/01/10 07:46:58;;;;;;;15.53;8.60;;;0.60;96.30;;;;;;4901440;29;20672;-70
2022/01/10 07:49:24;;;;;;;11.83;7.90;;;0.50;96.30;;;;;;4898069;29;20461;-72
2022/01/10 07:51:49;;;;;;;12.17;8.50;;;0.60;96.30;;;;;;4917253;29;20535;-72
2022/01/10 07:54:15;;;;;;;12.20;7.97;;;0.60;96.30;;;;;;4915680;29;20180;-72
2022/01/10 07:56:40;;;;;;;20.37;9.87;;;0.50;96.30;;;;;;4914598;29;20191;-70
2022/01/10 07:59:06;;;;;;;18.40;9.53;;;0.50;96.30;;;;;;4899384;29;20332;-71
2022/01/10 08:01:31;;;;;;;15.77;9.67;;;0.50;96.30;;;;;;4904500;29;20750;-71
2022/01/10 08:03:57;;;;;;;16.50;9.67;;;0.50;96.30;;;;;;4916344;29;20187;-70
2022/01/10 08:06:22;;;;;;;17.03;9.90;;;0.50;96.30;;;;;;4916155;29;20573;-71
2022/01/10 08:08:48;;;;;;;16.17;10.10;;;0.50;96.30;;;;;;4916023;29;20176;-71
2022/01/10 08:11:14;;;;;;;18.40;10.23;;;0.60;96.30;;;;;;4916514;29;20210;-72
2022/01/10 08:13:41;;;;;;;22.20;9.90;;;0.60;96.30;;;;;;4914329;29;20928;-70
2022/01/10 08:16:07;;;;;;;20.20;11.03;;;0.60;96.30;;;;;;4914708;29;20219;-70
2022/01/10 08:18:34;;;;;;;26.87;9.10;;;0.60;96.30;;;;;;4915088;29;20788;-70
2022/01/10 08:21:00;;;;;;;20.97;8.70;;;0.70;96.30;;;;;;4916405;29;20200;-71
2022/01/10 08:23:25;;;;;;;20.47;9.20;;;0.70;96.30;;;;;;4912460;29;20433;-70
2022/01/10 08:25:51;;;;;;;11.27;7.93;;;0.70;96.30;;;;;;4900782;29;20204;-70
2022/01/10 08:28:17;;;;;;;21.33;9.00;;;0.70;96.30;;;;;;4897618;29;20633;-72
2022/01/10 08:30:43;;;;;;;14.87;9.17;;;0.70;96.30;;;;;;4897384;29;20465;-70
2022/01/10 08:33:08;;;;;;;19.77;9.27;;;0.70;96.30;;;;;;4897120;29;20264;-69
2022/01/10 08:35:34;;;;;;;15.80;8.20;;;0.80;96.30;;;;;;4906897;29;20176;-69
2022/01/10 08:38:00;;;;;;;18.87;8.60;;;0.80;96.30;;;;;;4916107;29;20668;-70
2022/01/10 08:40:25;;;;;;;15.07;8.13;;;0.80;96.30;;;;;;4916040;29;20235;-69
2022/01/10 08:42:51;;;;;;;34.80;7.80;;;0.80;96.30;;;;;;4904996;29;20192;-69
2022/01/10 08:45:17;;;;;;;16.50;8.97;;;0.80;96.30;;;;;;4897097;29;20189;-69
2022/01/10 08:47:42;;;;;;;19.67;9.13;;;0.80;96.30;;;;;;4897158;29;20185;-69
2022/01/10 08:50:10;;;;;;;24.97;7.97;;;0.80;96.30;;;;;;4896931;29;20233;-70
2022/01/10 08:52:36;;;;;;;14.13;7.97;;;0.90;96.30;;;;;;4897214;29;20621;-69
2022/01/10 08:55:03;;;;;;;18.17;8.37;;;0.90;96.30;;;;;;4896928;29;20424;-69
2022/01/10 08:57:28;;;;;;;18.77;7.97;;;0.90;96.30;;;;;;4897152;29;20421;-69
2022/01/10 08:59:54;;;;;;;20.30;9.20;;;1.00;96.30;;;;;;4897034;29;20413;-69
2022/01/10 09:02:19;;;;;;;17.93;8.27;;;1.00;96.30;;;;;;4896877;29;20221;-69
2022/01/10 09:04:46;;;;;;;18.57;8.23;;;1.00;96.30;;;;;;4896163;29;20624;-70
2022/01/10 09:07:12;;;;;;;16.83;8.57;;;1.00;96.30;;;;;;4897124;29;20264;-69
2022/01/10 09:09:38;;;;;;;14.07;7.57;;;1.00;96.30;;;;;;4905229;29;20906;-70
2022/01/10 09:12:04;;;;;;;20.70;7.07;;;1.00;96.30;;;;;;4915699;29;20480;-70
2022/01/10 09:14:30;;;;;;;18.43;7.83;;;1.10;96.30;;;;;;4915571;29;20267;-70
2022/01/10 09:16:55;;;;;;;25.43;8.57;;;1.10;96.30;;;;;;4914492;29;20516;-69
2022/01/10 09:19:21;;;;;;;17.00;7.57;;;1.20;96.30;;;;;;4915771;29;20185;-70
2022/01/10 09:21:47;;;;;;;10.87;7.57;;;1.20;96.30;;;;;;4915875;29;20235;-69
2022/01/10 09:24:13;;;;;;;16.00;6.87;;;1.20;96.30;;;;;;4914306;29;20593;-69
2022/01/10 09:26:39;;;;;;;14.77;7.20;;;1.20;96.30;;;;;;4915781;29;20446;-69
2022/01/10 09:29:05;;;;;;;18.20;7.63;;;1.30;96.30;;;;;;4914339;29;21098;-70
2022/01/10 09:31:30;;;;;;;13.97;7.80;;;1.30;96.30;;;;;;4915729;29;20206;-69
2022/01/10 09:33:56;;;;;;;19.00;7.63;;;1.40;96.30;;;;;;4914201;29;20204;-68
2022/01/10 09:36:25;;;;;;;15.03;7.87;;;1.30;96.30;;;;;;4899715;29;20184;-69
2022/01/10 09:38:51;;;;;;;10.80;7.07;;;1.30;96.30;;;;;;4896864;29;20184;-69
2022/01/10 09:41:16;;;;;;;15.10;6.83;;;1.20;96.30;;;;;;4896612;29;20863;-69
2022/01/10 09:43:49;;;;;;;13.10;6.80;;;1.30;96.30;;;;;;4896381;29;20674;-71
2022/01/10 09:46:15;;;;;;;12.47;6.50;;;1.30;96.30;;;;;;4896636;29;20188;-69
2022/01/10 09:48:41;;;;;;;12.77;5.80;;;1.30;96.30;;;;;;4896658;29;20429;-69
2022/01/10 09:51:06;;;;;;;9.40;7.00;;;1.40;96.30;;;;;;4898084;29;20216;-69
2022/01/10 09:53:32;;;;;;;6.50;5.40;;;1.50;96.30;;;;;;4895093;29;20173;-70
2022/01/10 09:55:57;;;;;;;13.00;4.90;;;1.50;96.30;;;;;;4896594;29;20821;-69
2022/01/10 09:58:23;;;;;;;8.80;4.87;;;1.50;96.30;;;;;;4896593;29;20639;-69
2022/01/10 10:00:53;;;;;;;8.10;5.60;;;1.50;96.30;;;;;;4895083;29;20213;-70
2022/01/10 10:03:21;;;;;;;16.70;6.70;;;1.60;96.30;;;;;;4896330;29;20196;-70
2022/01/10 10:05:46;;;;;;;10.23;6.77;;;1.50;96.30;;;;;;4896585;29;20965;-71
2022/01/10 10:08:12;;;;;;;21.10;7.20;;;1.50;96.30;;;;;;4895274;29;20429;-69
2022/01/10 10:10:37;;;;;;;45.93;8.03;;;1.50;96.30;;;;;;4912334;29;20279;-69
2022/01/10 10:13:03;;;;;;;15.17;7.63;;;1.50;96.30;;;;;;4915265;29;20177;-70
2022/01/10 10:15:31;;;;;;;35.57;8.10;;;1.50;96.30;;;;;;4914979;29;20173;-69
2022/01/10 10:17:57;;;;;;;26.27;8.90;;;1.40;96.30;;;;;;4917117;29;20172;-68
2022/01/10 10:20:23;;;;;;;30.07;8.70;;;1.40;96.30;;;;;;4918450;29;20420;-69
2022/01/10 10:22:53;;;;;;;51.50;10.30;;;1.30;96.30;;;;;;4918425;29;20456;-70
2022/01/10 10:25:21;;;;;;;24.63;8.50;;;1.40;96.30;;;;;;4918321;29;20913;-68
2022/01/10 10:27:48;;;;;;;44.77;7.00;;;1.40;96.30;;;;;;4918502;29;20468;-69
2022/01/10 10:30:23;;;;;;;50.97;8.17;;;1.40;96.30;;;;;;4918239;29;20550;-69
2022/01/10 10:32:50;;;;;;;38.63;8.70;;;1.40;96.30;;;;;;4918401;29;20416;-69
2022/01/10 10:35:16;;;;;;;44.43;8.50;;;1.50;96.30;;;;;;4910803;29;20449;-70
2022/01/10 10:37:44;;;;;;;32.00;7.57;;;1.50;96.30;;;;;;4899421;29;20437;-70
2022/01/10 10:40:14;;;;;;;17.60;8.30;;;1.50;96.30;;;;;;4899345;29;20509;-69
2022/01/10 10:42:41;;;;;;;22.53;8.10;;;1.50;96.30;;;;;;4899280;29;20425;-68
2022/01/10 10:45:09;;;;;;;47.07;8.27;;;1.50;96.30;;;;;;4899086;29;20897;-69
2022/01/10 10:47:36;;;;;;;20.97;8.20;;;1.50;96.30;;;;;;4899171;29;20446;-69
2022/01/10 10:50:07;;;;;;;37.10;7.73;;;1.50;96.30;;;;;;4898923;29;20551;-70
2022/01/10 10:52:35;;;;;;;19.33;6.60;;;1.60;96.30;;;;;;4899132;29;20507;-69
2022/01/10 10:55:14;;;;;;;18.33;6.80;;;1.60;96.30;;;;;;4898701;29;20441;-69
2022/01/10 10:57:42;;;;;;;44.20;7.00;;;1.50;96.30;;;;;;4898999;29;20851;-70
2022/01/10 11:00:15;;;;;;;27.80;7.50;;;1.50;96.30;;;;;;4899068;29;20417;-69
2022/01/10 11:02:41;;;;;;;46.33;7.77;;;1.50;96.30;;;;;;4899017;29;20421;-70
2022/01/10 11:05:07;;;;;;;17.43;8.03;;;1.50;96.30;;;;;;4898713;29;20448;-70
2022/01/10 11:07:35;;;;;;;87.60;10.03;;;1.50;96.30;;;;;;4898860;29;20410;-68
2022/01/10 11:10:05;;;;;;;47.20;7.67;;;1.50;96.30;;;;;;4909865;29;20979;-70
2022/01/10 11:12:33;;;;;;;157.40;12.50;;;1.50;96.30;;;;;;4917667;29;20437;-69
2022/01/10 11:15:03;;;;;;;112.43;9.47;;;1.50;96.30;;;;;;4918027;29;20455;-68
2022/01/10 11:17:29;;;;;;;203.90;11.20;;;1.50;96.30;;;;;;4917610;29;20416;-71
2022/01/10 11:20:12;;;;;;;138.57;10.37;;;1.50;96.30;;;;;;4917474;29;20421;-70
2022/01/10 11:27:49;;;;;;;114.60;9.30;;;1.60;96.30;;;;;;5105708;23;20499;-70
2022/01/10 12:09:25;;;;;;;161.67;9.40;;;1.40;96.30;;;;;;4204121;23;20493;-70
2022/01/10 12:11:52;;;;;;;249.23;10.90;;;1.40;96.30;;;;;;4897193;29;20442;-70
2022/01/10 12:14:20;;;;;;;391.37;14.27;;;1.40;96.30;;;;;;4897221;29;20416;-70
2022/01/10 12:16:46;;;;;;;227.87;11.27;;;1.40;96.30;;;;;;4897452;29;20993;-70
2022/01/10 12:19:12;;;;;;;235.80;10.97;;;1.50;96.30;;;;;;4897204;29;20906;-71
2022/01/10 12:55:17;;;;;;;175.87;11.97;;;1.50;96.30;;;;;;5604530;23;20514;-68
2022/01/10 12:57:43;;;;;;;200.33;11.10;;;1.40;96.30;;;;;;4915914;29;20893;-69
2022/01/10 13:00:09;;;;;;;120.07;10.10;;;1.50;96.30;;;;;;4915885;29;20255;-70
2022/01/10 13:02:34;;;;;;;250.90;12.60;;;1.50;96.30;;;;;;4915672;29;20680;-68
2022/01/10 13:05:04;;;;;;;213.87;11.57;;;1.50;96.30;;;;;;4915647;29;20439;-68
2022/01/10 13:07:30;;;;;;;134.57;10.00;;;1.50;96.30;;;;;;4915864;29;20227;-68
2022/01/10 13:09:58;;;;;;;143.70;11.80;;;1.50;96.30;;;;;;4915638;29;20456;-68
2022/01/10 13:12:26;;;;;;;161.33;12.67;;;1.50;96.30;;;;;;4915744;29;20188;-68
2022/01/10 13:14:52;;;;;;;51.53;10.00;;;1.50;96.30;;;;;;4915601;29;20892;-68
2022/01/10 13:17:23;;;;;;;163.97;11.67;;;1.50;96.30;;;;;;4915886;29;20956;-69
2022/01/10 13:20:09;;;;;;;83.80;11.23;;;1.50;96.30;;;;;;4915584;29;20964;-69
2022/01/10 13:22:40;;;;;;;117.03;11.63;;;1.40;96.30;;;;;;4898604;29;20475;-68
2022/01/10 13:25:11;;;;;;;66.43;11.10;;;1.40;96.30;;;;;;4915413;29;20438;-68
2022/01/10 13:27:37;;;;;;;106.93;11.37;;;1.40;96.30;;;;;;4915704;29;20905;-68
2022/01/10 13:30:18;;;;;;;73.93;10.13;;;1.40;96.30;;;;;;4915671;29;20960;-68
2022/01/10 13:32:46;;;;;;;113.00;11.60;;;1.50;96.30;;;;;;4915631;29;20495;-70
2022/01/10 13:35:23;;;;;;;70.17;10.37;;;1.50;96.30;;;;;;4908651;29;20422;-70
2022/01/10 13:37:59;;;;;;;37.57;9.67;;;1.50;96.30;;;;;;4879874;29;20512;-68
2022/01/10 13:40:28;;;;;;;68.20;10.87;;;1.50;96.30;;;;;;4896520;29;20420;-69
2022/01/10 13:42:53;;;;;;;36.67;9.43;;;1.50;96.30;;;;;;4896715;29;20425;-68
2022/01/10 13:45:40;;;;;;;60.87;10.50;;;1.50;96.30;;;;;;4896583;29;20417;-68
2022/01/10 13:48:09;;;;;;;40.67;9.10;;;1.50;96.30;;;;;;4896729;29;20181;-68
2022/01/10 13:50:34;;;;;;;20.93;9.57;;;1.50;96.30;;;;;;4896540;29;20468;-68
2022/01/10 13:53:05;;;;;;;18.50;9.63;;;1.50;96.30;;;;;;4900063;29;20420;-70
2022/01/10 13:55:32;;;;;;;19.07;9.43;;;1.50;96.30;;;;;;4899408;29;20189;-69
2022/01/10 13:57:57;;;;;;;18.10;8.60;;;1.50;96.30;;;;;;4900229;29;20489;-68
2022/01/10 14:00:24;;;;;;;14.20;8.30;;;1.50;96.30;;;;;;4900066;29;20903;-68
2022/01/10 14:02:52;;;;;;;11.67;8.20;;;1.50;96.30;;;;;;4900096;29;20280;-68
2022/01/10 14:05:18;;;;;;;12.00;7.53;;;1.50;96.30;;;;;;4899890;29;20512;-68
2022/01/10 14:07:43;;;;;;;12.30;8.27;;;1.50;96.30;;;;;;4899974;29;20500;-68
2022/01/10 14:10:09;;;;;;;19.40;8.63;;;1.50;96.30;;;;;;4912117;29;20550;-68
2022/01/10 14:12:34;;;;;;;15.63;7.90;;;1.60;96.30;;;;;;4918707;29;20231;-69
2022/01/10 14:15:00;;;;;;;14.57;8.07;;;1.50;96.30;;;;;;4918478;29;20205;-68
2022/01/10 14:17:25;;;;;;;21.50;8.87;;;1.50;96.30;;;;;;4918751;29;20177;-68
2022/01/10 14:19:51;;;;;;;15.03;8.87;;;1.50;96.30;;;;;;4918693;29;20216;-68
2022/01/10 14:22:17;;;;;;;25.27;8.83;;;1.60;96.30;;;;;;4918604;29;20200;-68
2022/01/10 14:24:42;;;;;;;13.03;9.07;;;1.60;96.30;;;;;;4918294;29;20176;-69
2022/01/10 14:27:08;;;;;;;15.10;9.87;;;1.50;96.30;;;;;;4918549;29;20592;-68
2022/01/10 14:29:33;;;;;;;18.10;10.27;;;1.50;96.30;;;;;;4918319;29;20200;-69
2022/01/10 14:31:59;;;;;;;15.20;9.60;;;1.50;96.30;;;;;;4918324;29;20211;-68
2022/01/10 14:34:24;;;;;;;16.03;9.13;;;1.40;96.30;;;;;;4917586;29;20637;-69
2022/01/10 14:36:49;;;;;;;21.00;10.30;;;1.30;96.30;;;;;;4899476;29;20184;-68
2022/01/10 14:39:15;;;;;;;17.43;10.13;;;1.30;96.30;;;;;;4899680;29;20181;-68
2022/01/10 14:41:41;;;;;;;20.93;10.27;;;1.30;96.30;;;;;;4899306;29;20276;-68
2022/01/10 14:44:06;;;;;;;18.03;9.70;;;1.30;96.30;;;;;;4899078;29;20645;-69
2022/01/10 14:46:33;;;;;;;21.00;9.23;;;1.30;96.30;;;;;;4882385;29;20642;-69
2022/01/10 14:48:58;;;;;;;20.40;9.90;;;1.30;96.30;;;;;;4882358;29;20184;-68
2022/01/10 14:51:24;;;;;;;17.03;9.90;;;1.30;96.30;;;;;;4899066;29;20461;-68
2022/01/10 14:53:50;;;;;;;19.97;9.67;;;1.20;96.30;;;;;;4898957;29;20729;-68
2022/01/10 14:56:16;;;;;;;21.83;10.63;;;1.30;96.30;;;;;;4898985;29;20677;-68
2022/01/10 14:58:42;;;;;;;24.50;11.20;;;1.20;96.30;;;;;;4899077;29;20169;-68
2022/01/10 15:01:08;;;;;;;19.03;10.10;;;1.20;96.30;;;;;;4899014;29;20421;-69
2022/01/10 15:03:34;;;;;;;18.60;9.67;;;1.20;96.30;;;;;;4897906;29;20173;-68
2022/01/10 15:05:59;;;;;;;23.90;10.13;;;1.20;96.30;;;;;;4899052;29;20512;-68
2022/01/10 15:08:25;;;;;;;22.20;8.80;;;1.20;96.30;;;;;;4898844;29;20544;-69
2022/01/10 15:10:52;;;;;;;15.50;9.57;;;1.20;96.30;;;;;;4899655;29;20295;-69
2022/01/10 15:13:18;;;;;;;14.70;8.60;;;1.20;96.30;;;;;;4917379;29;20467;-68
2022/01/10 15:15:45;;;;;;;16.80;8.13;;;1.20;96.30;;;;;;4917667;29;20425;-69
2022/01/10 15:18:11;;;;;;;11.63;6.87;;;1.10;96.30;;;;;;4917593;29;20491;-69
2022/01/10 15:20:39;;;;;;;8.67;6.40;;;1.10;96.30;;;;;;4917440;29;20503;-69
2022/01/10 15:23:05;;;;;;;9.00;6.73;;;1.10;96.30;;;;;;4917426;29;20451;-68
2022/01/10 15:25:30;;;;;;;8.47;6.60;;;1.10;96.30;;;;;;4900524;29;20854;-69
2022/01/10 15:27:56;;;;;;;14.60;6.43;;;1.00;96.30;;;;;;4917378;29;20444;-69
2022/01/10 15:30:24;;;;;;;13.80;7.20;;;1.00;96.30;;;;;;4917226;29;20251;-69
2022/01/10 15:32:50;;;;;;;13.87;6.07;;;1.00;96.30;;;;;;4898813;29;20421;-69
2022/01/10 15:35:15;;;;;;;10.50;6.87;;;1.00;96.30;;;;;;4898040;29;20441;-70
2022/01/10 15:37:41;;;;;;;9.07;6.80;;;1.00;96.30;;;;;;4898216;29;20504;-70
2022/01/10 15:40:08;;;;;;;9.57;5.90;;;1.00;96.30;;;;;;4911843;29;20222;-70
2022/01/10 15:42:34;;;;;;;9.50;6.83;;;1.00;96.30;;;;;;4885907;29;20689;-70
2022/01/10 15:45:00;;;;;;;14.73;8.00;;;1.00;96.30;;;;;;4911376;29;20491;-70
2022/01/10 15:47:25;;;;;;;13.17;8.43;;;1.10;96.30;;;;;;4915705;29;20412;-69
2022/01/10 15:49:51;;;;;;;20.77;9.03;;;1.10;96.30;;;;;;4899870;29;20204;-70
2022/01/10 15:52:18;;;;;;;12.57;9.17;;;1.10;96.30;;;;;;4916855;29;20287;-70
2022/01/10 15:54:46;;;;;;;14.10;9.23;;;1.10;96.30;;;;;;4916564;29;20180;-71
2022/01/10 15:57:12;;;;;;;17.57;9.37;;;1.10;96.30;;;;;;4903610;29;20444;-70
2022/01/10 15:59:39;;;;;;;14.40;8.97;;;1.10;96.30;;;;;;4897924;29;20448;-69
2022/01/10 16:02:07;;;;;;;21.03;9.90;;;1.10;96.30;;;;;;4897871;29;20205;-70
2022/01/10 16:04:34;;;;;;;17.50;10.73;;;1.10;96.30;;;;;;4897561;29;20485;-70
2022/01/10 16:07:00;;;;;;;19.03;10.47;;;1.10;96.30;;;;;;4881032;29;20436;-71
2022/01/10 16:09:26;;;;;;;19.57;10.13;;;1.10;96.30;;;;;;4897645;29;20436;-70
2022/01/10 16:11:52;;;;;;;19.90;10.93;;;1.10;96.30;;;;;;4897544;29;20437;-71
2022/01/10 16:14:17;;;;;;;17.30;10.60;;;1.10;96.30;;;;;;4906447;29;20208;-71
2022/01/10 16:16:43;;;;;;;22.20;11.37;;;1.00;96.30;;;;;;4916513;29;20204;-71
2022/01/10 16:19:08;;;;;;;18.10;11.10;;;1.00;96.30;;;;;;4916446;29;20195;-71
2022/01/10 16:21:34;;;;;;;28.33;12.17;;;1.00;96.30;;;;;;4916334;29;20204;-70
2022/01/10 16:24:00;;;;;;;18.63;11.30;;;0.90;96.30;;;;;;4916249;29;20183;-70
2022/01/10 16:26:25;;;;;;;16.03;11.27;;;0.90;96.30;;;;;;4916221;29;20186;-70
2022/01/10 16:28:51;;;;;;;16.20;10.90;;;1.00;96.30;;;;;;4916390;29;20172;-71
2022/01/10 16:31:16;;;;;;;15.03;10.20;;;1.00;96.30;;;;;;4916166;29;20283;-70
2022/01/10 16:33:42;;;;;;;15.77;9.00;;;1.00;96.30;;;;;;4915874;29;20512;-70
2022/01/10 16:36:11;;;;;;;17.67;9.83;;;0.90;96.30;;;;;;4903635;29;20173;-70
2022/01/10 16:38:37;;;;;;;13.33;9.13;;;0.90;96.30;;;;;;4915802;29;20710;-70
2022/01/10 16:41:03;;;;;;;15.93;9.97;;;0.90;96.30;;;;;;4914843;29;20456;-70
2022/01/10 16:43:30;;;;;;;13.13;8.70;;;0.90;96.30;;;;;;4915017;29;20204;-70
2022/01/10 16:45:56;;;;;;;18.07;10.50;;;1.00;96.30;;;;;;4915413;29;20180;-71
2022/01/10 16:48:21;;;;;;;17.53;11.10;;;1.00;96.30;;;;;;4915431;29;20428;-71
2022/01/10 16:50:47;;;;;;;21.87;10.23;;;1.00;96.30;;;;;;4913868;29;20212;-71
2022/01/10 16:53:12;;;;;;;20.70;10.17;;;1.00;96.30;;;;;;4915766;29;20252;-71
2022/01/10 16:55:39;;;;;;;13.93;7.93;;;1.10;96.30;;;;;;4915745;29;20188;-69
2022/01/10 16:58:06;;;;;;;17.10;9.77;;;1.10;96.30;;;;;;4915820;29;20168;-71
2022/01/10 17:00:32;;;;;;;15.37;9.60;;;1.10;96.30;;;;;;4898910;29;20464;-69
2022/01/10 17:02:58;;;;;;;12.13;7.70;;;1.10;96.30;;;;;;4915685;29;20425;-69
2022/01/10 17:05:23;;;;;;;12.70;7.80;;;1.00;96.30;;;;;;4914089;29;20433;-70
2022/01/10 17:07:49;;;;;;;10.20;6.63;;;0.90;96.30;;;;;;4898938;29;20267;-70
2022/01/10 17:10:20;;;;;;;10.27;6.10;;;0.80;96.30;;;;;;4902290;29;20208;-70
2022/01/10 17:12:52;;;;;;;7.20;5.53;;;0.70;96.30;;;;;;4896641;29;20180;-70
2022/01/10 17:15:17;;;;;;;9.97;6.17;;;0.70;96.30;;;;;;4896698;29;20397;-70
2022/01/10 17:17:43;;;;;;;9.70;5.70;;;0.60;96.30;;;;;;4896514;29;20513;-69
2022/01/10 17:20:09;;;;;;;9.33;6.63;;;0.60;96.30;;;;;;4878249;29;20193;-69
2022/01/10 17:22:39;;;;;;;10.77;6.80;;;0.60;96.30;;;;;;4896475;29;20205;-69
2022/01/10 17:25:07;;;;;;;13.33;8.00;;;0.60;96.30;;;;;;4896075;29;20417;-69
2022/01/10 17:27:32;;;;;;;11.77;7.60;;;0.60;96.30;;;;;;4900500;29;20850;-69
2022/01/10 17:29:58;;;;;;;11.40;6.83;;;0.60;96.30;;;;;;4900600;29;20464;-70
2022/01/10 17:32:23;;;;;;;17.17;7.70;;;0.60;96.30;;;;;;4900454;29;20629;-70
2022/01/10 17:34:49;;;;;;;9.70;7.77;;;0.60;96.30;;;;;;4889785;29;20180;-70
2022/01/10 17:37:14;;;;;;;16.20;8.80;;;0.60;96.30;;;;;;4900126;29;20181;-70
2022/01/10 17:39:40;;;;;;;14.50;9.17;;;0.70;96.30;;;;;;4900443;29;20768;-70
2022/01/10 17:42:06;;;;;;;13.27;7.60;;;0.70;96.30;;;;;;4908365;29;20300;-70
2022/01/10 17:44:33;;;;;;;15.10;6.93;;;0.70;96.30;;;;;;4919102;29;20270;-70
2022/01/10 17:46:58;;;;;;;14.97;7.00;;;0.70;96.30;;;;;;4912809;29;20827;-70
2022/01/10 17:49:28;;;;;;;11.20;6.80;;;0.70;96.30;;;;;;4907103;29;20521;-70
2022/01/10 17:52:10;;;;;;;11.30;6.67;;;0.70;96.30;;;;;;4883236;29;20213;-70
2022/01/10 17:54:35;;;;;;;12.07;6.97;;;0.70;96.30;;;;;;4900093;29;20409;-71
2022/01/10 17:57:01;;;;;;;15.23;7.97;;;0.70;96.30;;;;;;4883327;29;20451;-71
2022/01/10 17:59:27;;;;;;;14.30;7.20;;;0.80;96.30;;;;;;4899952;29;20633;-71
2022/01/10 18:01:53;;;;;;;14.60;7.07;;;0.80;96.30;;;;;;4899937;29;20437;-70
2022/01/10 18:04:18;;;;;;;11.97;7.90;;;0.80;96.30;;;;;;4905643;29;20188;-70
2022/01/10 18:06:45;;;;;;;14.67;7.80;;;0.80;96.30;;;;;;4912651;29;20205;-69
2022/01/10 18:09:10;;;;;;;18.10;8.60;;;0.80;96.30;;;;;;4912316;29;20658;-70
2022/01/10 18:11:36;;;;;;;14.07;8.00;;;0.80;96.30;;;;;;4882727;29;20488;-69
2022/01/10 18:14:02;;;;;;;16.10;8.80;;;0.90;96.30;;;;;;4900376;29;20181;-69
2022/01/10 18:16:27;;;;;;;13.00;7.60;;;0.90;96.30;;;;;;4898887;29;20203;-68